Time;durP1;ratioP1;P1;durP2;ratioP2;P2;SDS_P1;SDS_P2;PMS_P1;PMS_P2;Temp;Humidity;BMP_temperature;BMP_pressure;BME280_temperature;BME280_humidity;BME280_pressure;Samples;Min_cycle;Max_cycle;Signal;HPM_P1;HPM_P2
2022/04/14 00:00:56;;;;;;;;;;;17.70;59.50;;;;;;5035267;28;20690;-71
2022/04/14 00:03:23;;;;;;;;;;;17.60;59.60;;;;;;5034309;28;19933;-70
2022/04/14 00:05:49;;;;;;;;;;;17.60;59.80;;;;;;5039726;28;19936;-71
2022/04/14 00:08:16;;;;;;;;;;;17.50;59.80;;;;;;5038679;28;20349;-70
2022/04/14 00:10:44;;;;;;;;;;;17.50;60.00;;;;;;5040919;28;19928;-71
2022/04/14 00:13:10;;;;;;;;;;;17.50;60.20;;;;;;5042502;28;20960;-71
2022/04/14 00:15:37;;;;;;;;;;;17.50;60.40;;;;;;5037625;28;19933;-71
2022/04/14 00:18:04;;;;;;;;;;;17.40;60.50;;;;;;5035533;28;19933;-72
2022/04/14 00:20:30;;;;;;;;;;;17.40;60.80;;;;;;5041249;28;19929;-70
2022/04/14 00:22:57;;;;;;;;;;;17.40;61.00;;;;;;5035618;28;19929;-70
2022/04/14 00:25:23;;;;;;;;;;;17.30;61.10;;;;;;5040515;28;20266;-71
2022/04/14 00:27:51;;;;;;;;;;;17.30;61.40;;;;;;5038788;28;19933;-70
2022/04/14 00:30:18;;;;;;;;;;;17.30;61.50;;;;;;5037043;28;19936;-71
2022/04/14 00:32:45;;;;;;;;;;;17.20;61.60;;;;;;5037867;28;19932;-71
2022/04/14 00:35:11;;;;;;;;;;;17.20;61.70;;;;;;5037439;28;20405;-71
2022/04/14 00:37:39;;;;;;;;;;;17.20;61.80;;;;;;5040726;28;19929;-71
2022/04/14 00:40:06;;;;;;;;;;;17.10;62.00;;;;;;5038237;28;19933;-71
2022/04/14 00:42:33;;;;;;;;;;;17.10;62.20;;;;;;5039549;28;20023;-71
2022/04/14 00:45:01;;;;;;;;;;;17.10;62.30;;;;;;5040187;28;19944;-70
2022/04/14 00:47:29;;;;;;;;;;;17.10;62.30;;;;;;5041088;28;20373;-71
2022/04/14 00:49:55;;;;;;;;;;;17.00;62.50;;;;;;5041426;28;19932;-72
2022/04/14 00:52:23;;;;;;;;;;;17.00;62.60;;;;;;5039147;28;21959;-73
2022/04/14 00:54:49;;;;;;;;;;;16.90;62.70;;;;;;5037734;28;19968;-72
2022/04/14 00:57:16;;;;;;;;;;;16.90;62.80;;;;;;5036911;28;19933;-71
2022/04/14 00:59:42;;;;;;;;;;;16.90;63.00;;;;;;5038113;28;19929;-71
2022/04/14 01:02:10;;;;;;;;;;;16.90;63.10;;;;;;5034022;28;20003;-71
2022/04/14 01:04:38;;;;;;;;;;;16.90;63.20;;;;;;5037489;28;20243;-71
2022/04/14 01:07:06;;;;;;;;;;;16.80;63.30;;;;;;5038836;28;19932;-72
2022/04/14 01:09:33;;;;;;;;;;;16.80;63.60;;;;;;5036042;28;19928;-73
2022/04/14 01:12:00;;;;;;;;;;;16.80;63.70;;;;;;5039994;28;19936;-72
2022/04/14 01:14:28;;;;;;;;;;;16.70;63.80;;;;;;5037707;28;20420;-73
2022/04/14 01:16:55;;;;;;;;;;;16.70;63.90;;;;;;5037991;28;19940;-72
2022/04/14 01:19:23;;;;;;;;;;;16.70;64.10;;;;;;5039222;28;19944;-71
2022/04/14 01:21:53;;;;;;;;;;;16.60;64.30;;;;;;5036594;28;19932;-71
2022/04/14 01:27:51;;;;;;;;;;;16.60;64.60;;;;;;5026909;28;20055;-71
2022/04/14 01:30:17;;;;;;;;;;;16.50;64.80;;;;;;5036819;28;19972;-72
2022/04/14 01:32:44;;;;;;;;;;;16.50;64.90;;;;;;5035818;28;19933;-72
2022/04/14 01:35:11;;;;;;;;;;;16.50;65.00;;;;;;5039159;28;19928;-72
2022/04/14 01:37:37;;;;;;;;;;;16.40;65.10;;;;;;5037759;28;20389;-72
2022/04/14 01:40:04;;;;;;;;;;;16.50;65.40;;;;;;5039310;28;19933;-74
2022/04/14 01:42:31;;;;;;;;;;;16.40;65.50;;;;;;5037933;28;19928;-74
2022/04/14 01:44:59;;;;;;;;;;;16.40;65.60;;;;;;5036762;28;19933;-71
2022/04/14 01:47:25;;;;;;;;;;;16.30;65.70;;;;;;5037035;28;19935;-72
2022/04/14 01:49:52;;;;;;;;;;;16.30;65.90;;;;;;5038612;28;19933;-70
2022/04/14 01:52:19;;;;;;;;;;;16.40;66.10;;;;;;5037632;28;19932;-74
2022/04/14 01:54:46;;;;;;;;;;;16.30;66.20;;;;;;5081302;22;19933;-75
2022/04/14 01:57:12;;;;;;;;;;;16.30;67.10;;;;;;5038430;28;19929;-77
2022/04/14 01:59:41;;;;;;;;;;;16.30;67.20;;;;;;5037657;28;19933;-76
2022/04/14 02:02:09;;;;;;;;;;;16.20;67.50;;;;;;5038182;28;19929;-77
2022/04/14 02:04:36;;;;;;;;;;;16.20;66.90;;;;;;5035515;28;19937;-76
2022/04/14 02:07:05;;;;;;;;;;;16.20;67.10;;;;;;5038562;28;19936;-76
2022/04/14 02:09:31;;;;;;;;;;;16.10;67.10;;;;;;5037917;28;19933;-76
2022/04/14 02:11:58;;;;;;;;;;;16.10;67.30;;;;;;5036912;28;19937;-77
2022/04/14 02:14:24;;;;;;;;;;;16.00;67.30;;;;;;5037764;28;20391;-77
2022/04/14 02:16:51;;;;;;;;;;;16.10;67.50;;;;;;5036111;28;19932;-77
2022/04/14 02:19:18;;;;;;;;;;;16.10;67.60;;;;;;5037008;28;19933;-76
2022/04/14 02:21:45;;;;;;;;;;;16.00;67.60;;;;;;5038278;28;19935;-78
2022/04/14 02:24:12;;;;;;;;;;;16.00;67.70;;;;;;5038243;28;19924;-77
2022/04/14 02:26:38;;;;;;;;;;;16.00;67.90;;;;;;5037915;28;19929;-77
2022/04/14 02:29:05;;;;;;;;;;;15.90;67.90;;;;;;5042221;28;19933;-77
2022/04/14 02:31:31;;;;;;;;;;;15.90;68.10;;;;;;5043815;28;19956;-77
2022/04/14 02:33:58;;;;;;;;;;;15.90;68.20;;;;;;5040367;28;20630;-77
2022/04/14 02:36:26;;;;;;;;;;;15.90;68.30;;;;;;5039751;28;19929;-78
2022/04/14 02:38:52;;;;;;;;;;;15.90;68.50;;;;;;5039871;28;19933;-76
2022/04/14 02:41:19;;;;;;;;;;;15.90;68.70;;;;;;5043597;28;19936;-76
2022/04/14 02:43:45;;;;;;;;;;;15.80;68.70;;;;;;5039097;28;20625;-76
2022/04/14 02:46:12;;;;;;;;;;;15.80;68.70;;;;;;5039769;28;19940;-76
2022/04/14 02:48:38;;;;;;;;;;;15.80;68.80;;;;;;5040981;28;19933;-77
2022/04/14 02:51:05;;;;;;;;;;;15.80;68.80;;;;;;5042245;28;19933;-75
2022/04/14 02:53:33;;;;;;;;;;;15.80;69.00;;;;;;5041832;28;19925;-77
2022/04/14 02:55:59;;;;;;;;;;;15.80;69.10;;;;;;5043042;28;20575;-78
2022/04/14 02:58:26;;;;;;;;;;;15.70;69.10;;;;;;5041679;28;20872;-77
2022/04/14 03:00:52;;;;;;;;;;;15.70;69.10;;;;;;5039837;28;19935;-77
2022/04/14 03:03:19;;;;;;;;;;;15.70;69.20;;;;;;5041513;28;19928;-77
2022/04/14 03:05:46;;;;;;;;;;;15.70;69.40;;;;;;5041162;28;19929;-77
2022/04/14 03:08:13;;;;;;;;;;;15.70;69.50;;;;;;5040388;28;19929;-76
2022/04/14 03:10:40;;;;;;;;;;;15.60;69.70;;;;;;5042361;28;19932;-76
2022/04/14 03:13:07;;;;;;;;;;;15.60;70.00;;;;;;5040364;28;19933;-77
2022/04/14 03:15:34;;;;;;;;;;;15.60;70.10;;;;;;5039720;28;19929;-78
2022/04/14 03:18:01;;;;;;;;;;;15.60;70.30;;;;;;5042093;28;19928;-77
2022/04/14 03:20:27;;;;;;;;;;;15.60;70.50;;;;;;5042861;28;19936;-78
2022/04/14 03:22:55;;;;;;;;;;;15.60;70.50;;;;;;5042321;28;19929;-77
2022/04/14 03:25:22;;;;;;;;;;;15.60;70.70;;;;;;5039241;28;19937;-78
2022/04/14 03:27:50;;;;;;;;;;;15.50;70.80;;;;;;5041200;28;20344;-77
2022/04/14 03:30:16;;;;;;;;;;;15.50;70.90;;;;;;5039001;28;19944;-78
2022/04/14 03:32:44;;;;;;;;;;;15.50;70.90;;;;;;5040731;28;19929;-76
2022/04/14 03:35:11;;;;;;;;;;;15.50;71.20;;;;;;5035122;28;19936;-77
2022/04/14 03:37:37;;;;;;;;;;;15.40;71.30;;;;;;5038441;28;19936;-77
2022/04/14 03:40:04;;;;;;;;;;;15.40;71.30;;;;;;5039234;28;19939;-77
2022/04/14 03:42:31;;;;;;;;;;;15.40;71.30;;;;;;5040486;28;19929;-78
2022/04/14 03:44:59;;;;;;;;;;;15.40;71.40;;;;;;5038203;28;19937;-77
2022/04/14 03:47:26;;;;;;;;;;;15.40;71.60;;;;;;5039582;28;20013;-77
2022/04/14 03:49:52;;;;;;;;;;;15.40;71.70;;;;;;5040218;28;19935;-78
2022/04/14 03:52:19;;;;;;;;;;;15.40;71.70;;;;;;5043322;28;19932;-77
2022/04/14 03:54:45;;;;;;;;;;;15.30;71.70;;;;;;5040174;28;19939;-77
2022/04/14 03:57:12;;;;;;;;;;;15.40;71.80;;;;;;5040384;28;19936;-78
2022/04/14 03:59:39;;;;;;;;;;;15.30;71.80;;;;;;5043171;28;20445;-78
2022/04/14 04:02:07;;;;;;;;;;;15.30;71.80;;;;;;5040446;28;20297;-75
2022/04/14 04:04:33;;;;;;;;;;;15.30;71.90;;;;;;5040360;28;20434;-78
2022/04/14 04:07:00;;;;;;;;;;;15.20;71.90;;;;;;5039488;28;20455;-77
2022/04/14 04:09:27;;;;;;;;;;;15.20;72.00;;;;;;5039556;28;19965;-77
2022/04/14 04:11:53;;;;;;;;;;;15.20;72.10;;;;;;5040967;28;20846;-77
2022/04/14 04:14:20;;;;;;;;;;;15.20;72.20;;;;;;5039784;28;19959;-78
2022/04/14 04:16:47;;;;;;;;;;;15.20;72.40;;;;;;5040716;28;19999;-77
2022/04/14 04:19:15;;;;;;;;;;;15.10;72.30;;;;;;5040350;28;19929;-77
2022/04/14 04:21:41;;;;;;;;;;;15.10;72.40;;;;;;5041465;28;19928;-78
2022/04/14 04:24:08;;;;;;;;;;;15.10;72.60;;;;;;5040158;28;19924;-75
2022/04/14 04:26:34;;;;;;;;;;;15.10;72.70;;;;;;5039709;28;19944;-77
2022/04/14 04:29:01;;;;;;;;;;;15.10;72.90;;;;;;5039333;28;19957;-77
2022/04/14 04:31:27;;;;;;;;;;;15.00;73.00;;;;;;5041074;28;19932;-76
2022/04/14 04:33:54;;;;;;;;;;;15.10;73.10;;;;;;5040463;28;19928;-78
2022/04/14 04:36:22;;;;;;;;;;;15.00;73.10;;;;;;5040678;28;19935;-78
2022/04/14 04:38:48;;;;;;;;;;;15.00;73.20;;;;;;5037205;28;19928;-77
2022/04/14 04:41:15;;;;;;;;;;;15.00;73.20;;;;;;5039543;28;19947;-77
2022/04/14 04:43:41;;;;;;;;;;;15.00;73.30;;;;;;5038903;28;19928;-78
2022/04/14 04:46:08;;;;;;;;;;;14.90;73.30;;;;;;5037243;28;19928;-76
2022/04/14 04:48:35;;;;;;;;;;;14.90;73.60;;;;;;5039947;28;19971;-77
2022/04/14 04:51:01;;;;;;;;;;;14.80;73.50;;;;;;5042144;28;19929;-78
2022/04/14 04:53:29;;;;;;;;;;;14.90;73.70;;;;;;5042954;28;19933;-76
2022/04/14 04:55:56;;;;;;;;;;;14.90;73.80;;;;;;5040934;28;19936;-75
2022/04/14 04:58:22;;;;;;;;;;;14.80;73.70;;;;;;5038422;28;19929;-77
2022/04/14 05:00:49;;;;;;;;;;;14.80;73.70;;;;;;5037663;28;19937;-77
2022/04/14 05:03:15;;;;;;;;;;;14.80;73.80;;;;;;5038581;28;19928;-78
2022/04/14 05:05:42;;;;;;;;;;;14.80;73.80;;;;;;5038926;28;19929;-76
2022/04/14 05:08:08;;;;;;;;;;;14.80;73.90;;;;;;5034193;28;19937;-78
2022/04/14 05:10:36;;;;;;;;;;;14.80;74.00;;;;;;5040336;28;19929;-77
2022/04/14 05:13:04;;;;;;;;;;;14.80;74.00;;;;;;5039537;28;19932;-77
2022/04/14 05:15:31;;;;;;;;;;;14.70;74.00;;;;;;5038255;28;20310;-76
2022/04/14 05:17:57;;;;;;;;;;;14.70;74.10;;;;;;5040518;28;20002;-77
2022/04/14 05:20:24;;;;;;;;;;;14.70;74.20;;;;;;5038642;28;20233;-78
2022/04/14 05:22:50;;;;;;;;;;;14.70;74.30;;;;;;5038638;28;20764;-78
2022/04/14 05:25:17;;;;;;;;;;;14.70;74.40;;;;;;5041444;28;19929;-77
2022/04/14 05:27:45;;;;;;;;;;;14.60;74.40;;;;;;5041213;28;19929;-76
2022/04/14 05:30:12;;;;;;;;;;;14.70;74.50;;;;;;5038607;28;19941;-76
2022/04/14 05:32:38;;;;;;;;;;;14.60;74.50;;;;;;5039780;28;19932;-77
2022/04/14 05:35:06;;;;;;;;;;;14.60;74.60;;;;;;5035524;28;19933;-76
2022/04/14 05:37:32;;;;;;;;;;;14.60;74.60;;;;;;5036278;28;20015;-77
2022/04/14 05:39:59;;;;;;;;;;;14.50;74.70;;;;;;5033194;28;19936;-76
2022/04/14 05:42:26;;;;;;;;;;;14.60;74.80;;;;;;5037419;28;20460;-77
2022/04/14 05:44:54;;;;;;;;;;;14.60;74.80;;;;;;5036293;28;20023;-78
2022/04/14 05:47:23;;;;;;;;;;;14.50;74.80;;;;;;5037395;28;19940;-76
2022/04/14 05:49:50;;;;;;;;;;;14.50;74.80;;;;;;5035104;28;19940;-76
2022/04/14 05:52:16;;;;;;;;;;;14.50;74.80;;;;;;5037107;28;19944;-77
2022/04/14 05:54:45;;;;;;;;;;;14.50;74.80;;;;;;5038045;28;19940;-76
2022/04/14 05:57:12;;;;;;;;;;;14.60;74.90;;;;;;5035477;28;19935;-77
2022/04/14 05:59:38;;;;;;;;;;;14.50;74.90;;;;;;5037640;28;20427;-77
2022/04/14 06:02:06;;;;;;;;;;;14.50;75.00;;;;;;5038950;28;19929;-76
2022/04/14 06:04:33;;;;;;;;;;;14.50;75.00;;;;;;5034878;28;19929;-78
2022/04/14 06:06:59;;;;;;;;;;;14.50;75.10;;;;;;5043400;28;19939;-76
2022/04/14 06:09:26;;;;;;;;;;;14.40;75.00;;;;;;5039072;28;19940;-76
2022/04/14 06:11:52;;;;;;;;;;;14.40;75.10;;;;;;5038630;28;20223;-77
2022/04/14 06:14:19;;;;;;;;;;;14.50;76.90;;;;;;5039815;28;20799;-79
2022/04/14 06:16:45;;;;;;;;;;;14.50;79.00;;;;;;5038256;28;19933;-67
2022/04/14 06:19:15;;;;;;;;;;;14.40;79.40;;;;;;5043298;28;19940;-66
2022/04/14 06:21:42;;;;;;;;;;;14.40;79.70;;;;;;5039155;28;19928;-66
2022/04/14 06:24:08;;;;;;;;;;;14.30;79.60;;;;;;5040640;28;20396;-66
2022/04/14 06:26:35;;;;;;;;;;;14.30;79.40;;;;;;5041968;28;19935;-66
2022/04/14 06:29:02;;;;;;;;;;;14.30;80.00;;;;;;5042606;28;19959;-67
2022/04/14 06:31:28;;;;;;;;;;;14.30;79.10;;;;;;5041851;28;19932;-66
2022/04/14 06:33:55;;;;;;;;;;;14.30;79.10;;;;;;5042539;28;20451;-67
2022/04/14 06:36:23;;;;;;;;;;;14.30;79.00;;;;;;5040263;28;19929;-66
2022/04/14 06:38:49;;;;;;;;;;;14.30;79.00;;;;;;5041581;28;19929;-67
2022/04/14 06:41:16;;;;;;;;;;;14.30;78.90;;;;;;5044602;28;19928;-66
2022/04/14 06:43:42;;;;;;;;;;;14.30;78.90;;;;;;5041375;28;19932;-66
2022/04/14 06:46:09;;;;;;;;;;;14.30;78.80;;;;;;5045489;28;19929;-67
2022/04/14 06:48:35;;;;;;;;;;;14.30;78.80;;;;;;5042693;28;19944;-67
2022/04/14 06:51:02;;;;;;;;;;;14.20;78.90;;;;;;5042992;28;19939;-66
2022/04/14 06:53:30;;;;;;;;;;;14.30;79.00;;;;;;5047097;28;19944;-67
2022/04/14 06:55:56;;;;;;;;;;;14.30;79.00;;;;;;5043961;28;20525;-66
2022/04/14 06:58:23;;;;;;;;;;;14.20;78.80;;;;;;5036301;28;19929;-66
2022/04/14 07:00:49;;;;;;;;;;;14.30;79.10;;;;;;5040457;28;20137;-67
2022/04/14 07:03:16;;;;;;;;;;;14.30;79.20;;;;;;5031405;28;19933;-66
2022/04/14 07:05:42;;;;;;;;;;;14.30;79.20;;;;;;5041628;28;20278;-67
2022/04/14 07:08:09;;;;;;;;;;;14.30;79.00;;;;;;5033506;28;19975;-66
2022/04/14 07:10:37;;;;;;;;;;;14.30;78.80;;;;;;5044544;28;19940;-66
2022/04/14 07:13:04;;;;;;;;;;;14.30;79.00;;;;;;5036794;28;19932;-66
2022/04/14 07:15:30;;;;;;;;;;;14.30;78.90;;;;;;5037913;28;19932;-66
2022/04/14 07:17:57;;;;;;;;;;;14.30;79.00;;;;;;5037818;28;19932;-66
2022/04/14 07:20:24;;;;;;;;;;;14.30;79.00;;;;;;5040332;28;19933;-66
2022/04/14 07:22:52;;;;;;;;;;;14.30;79.10;;;;;;5041231;28;20467;-67
2022/04/14 07:25:19;;;;;;;;;;;14.20;79.10;;;;;;5041225;28;20059;-67
2022/04/14 07:27:47;;;;;;;;;;;14.30;79.10;;;;;;5038425;28;19972;-67
2022/04/14 07:30:14;;;;;;;;;;;14.30;79.00;;;;;;5036628;28;19974;-67
2022/04/14 07:32:43;;;;;;;;;;;14.30;79.20;;;;;;5042016;28;20059;-67
2022/04/14 07:35:09;;;;;;;;;;;14.30;79.50;;;;;;5041587;28;19987;-67
2022/04/14 07:37:36;;;;;;;;;;;14.30;79.50;;;;;;5040366;28;19936;-67
2022/04/14 07:40:03;;;;;;;;;;;14.40;79.40;;;;;;5038893;28;19939;-67
2022/04/14 07:42:33;;;;;;;;;;;14.40;79.40;;;;;;5042426;28;20202;-67
2022/04/14 07:45:01;;;;;;;;;;;14.40;79.30;;;;;;5039487;28;20002;-67
2022/04/14 07:47:27;;;;;;;;;;;14.40;79.30;;;;;;5041432;28;19987;-66
2022/04/14 07:49:54;;;;;;;;;;;14.40;79.40;;;;;;5037465;28;20359;-66
2022/04/14 07:52:20;;;;;;;;;;;14.40;79.40;;;;;;5041684;28;19932;-66
2022/04/14 07:54:47;;;;;;;;;;;14.50;79.50;;;;;;5036214;28;19932;-67
2022/04/14 07:57:14;;;;;;;;;;;14.50;79.70;;;;;;5039171;28;19936;-67
2022/04/14 07:59:40;;;;;;;;;;;14.50;79.80;;;;;;5039533;28;20050;-66
2022/04/14 08:02:08;;;;;;;;;;;14.50;79.90;;;;;;5032417;28;19964;-67
2022/04/14 08:04:35;;;;;;;;;;;14.60;80.10;;;;;;5041892;28;19929;-67
2022/04/14 08:07:02;;;;;;;;;;;14.60;80.40;;;;;;5042446;28;19936;-67
2022/04/14 08:09:28;;;;;;;;;;;14.60;80.40;;;;;;5045518;28;19936;-66
2022/04/14 08:11:55;;;;;;;;;;;14.70;80.40;;;;;;5039703;28;19937;-66
2022/04/14 08:14:21;;;;;;;;;;;14.70;80.20;;;;;;5039144;28;19929;-66
2022/04/14 08:16:48;;;;;;;;;;;14.70;80.10;;;;;;5037750;28;19936;-67
2022/04/14 08:19:16;;;;;;;;;;;14.70;80.10;;;;;;5041116;28;19933;-66
2022/04/14 08:21:42;;;;;;;;;;;14.80;80.20;;;;;;5041066;28;19937;-66
2022/04/14 08:24:09;;;;;;;;;;;14.80;80.20;;;;;;5040004;28;19974;-67
2022/04/14 08:26:35;;;;;;;;;;;14.80;80.30;;;;;;5036945;28;19936;-66
2022/04/14 08:29:02;;;;;;;;;;;14.90;80.40;;;;;;5040849;28;20295;-67
2022/04/14 08:31:28;;;;;;;;;;;15.00;80.20;;;;;;5040181;28;19929;-66
2022/04/14 08:33:55;;;;;;;;;;;15.00;80.00;;;;;;5041513;28;20218;-66
2022/04/14 08:36:23;;;;;;;;;;;15.00;79.80;;;;;;5038594;28;19944;-66
2022/04/14 08:38:50;;;;;;;;;;;15.00;79.70;;;;;;5040818;28;19943;-67
2022/04/14 08:41:17;;;;;;;;;;;15.10;79.60;;;;;;5036868;28;19929;-67
2022/04/14 08:43:47;;;;;;;;;;;15.10;79.70;;;;;;5041118;28;19936;-67
2022/04/14 08:46:14;;;;;;;;;;;15.20;79.80;;;;;;5038874;28;20044;-66
2022/04/14 08:48:41;;;;;;;;;;;15.20;79.60;;;;;;5037178;28;19933;-66
2022/04/14 08:51:10;;;;;;;;;;;15.20;79.50;;;;;;5041438;28;19928;-67
2022/04/14 08:53:39;;;;;;;;;;;15.20;79.50;;;;;;5040394;28;19936;-66
2022/04/14 08:56:06;;;;;;;;;;;15.30;79.50;;;;;;5029677;28;19936;-66
2022/04/14 08:58:33;;;;;;;;;;;15.30;79.50;;;;;;5038136;28;19929;-67
2022/04/14 09:01:00;;;;;;;;;;;15.30;79.40;;;;;;5042833;28;19928;-66
2022/04/14 09:03:28;;;;;;;;;;;15.40;79.40;;;;;;5041536;28;19955;-67
2022/04/14 09:05:55;;;;;;;;;;;15.40;79.20;;;;;;5033867;28;19929;-67
2022/04/14 09:08:22;;;;;;;;;;;15.40;79.20;;;;;;5039947;28;19936;-67
2022/04/14 09:10:50;;;;;;;;;;;15.40;79.10;;;;;;5044261;28;19936;-67
2022/04/14 09:13:17;;;;;;;;;;;15.50;79.30;;;;;;5037004;28;19982;-67
2022/04/14 09:15:44;;;;;;;;;;;15.50;79.40;;;;;;5038442;28;20728;-66
2022/04/14 09:18:10;;;;;;;;;;;15.50;79.20;;;;;;5034500;28;19944;-67
2022/04/14 09:20:37;;;;;;;;;;;15.60;79.90;;;;;;5039398;28;20401;-67
2022/04/14 09:23:15;;;;;;;;;;;15.60;78.90;;;;;;5040701;28;19982;-67
2022/04/14 09:25:42;;;;;;;;;;;15.60;78.80;;;;;;5036425;28;20463;-68
2022/04/14 09:28:10;;;;;;;;;;;15.70;78.80;;;;;;5038677;28;19929;-67
2022/04/14 09:30:37;;;;;;;;;;;15.70;78.60;;;;;;5037842;28;19928;-66
2022/04/14 09:33:04;;;;;;;;;;;15.80;78.50;;;;;;5040763;28;20051;-67
2022/04/14 09:35:32;;;;;;;;;;;15.80;78.40;;;;;;5044020;28;19952;-67
2022/04/14 09:38:02;;;;;;;;;;;15.80;78.40;;;;;;5037491;28;20023;-66
2022/04/14 09:40:29;;;;;;;;;;;15.90;78.20;;;;;;5039071;28;19960;-67
2022/04/14 09:42:56;;;;;;;;;;;15.90;77.90;;;;;;5035222;28;20022;-67
2022/04/14 09:45:25;;;;;;;;;;;16.00;77.80;;;;;;5038554;28;20296;-67
2022/04/14 09:47:52;;;;;;;;;;;16.00;77.70;;;;;;5038340;28;19940;-67
2022/04/14 09:50:26;;;;;;;;;;;16.10;77.70;;;;;;5039568;28;19936;-67
2022/04/14 09:52:56;;;;;;;;;;;16.10;77.50;;;;;;5042978;28;19970;-67
2022/04/14 09:55:23;;;;;;;;;;;16.10;77.30;;;;;;5039868;28;19928;-67
2022/04/14 09:58:05;;;;;;;;;;;16.20;77.20;;;;;;5039236;28;19929;-66
2022/04/14 10:00:37;;;;;;;;;;;16.20;77.10;;;;;;5039683;28;19929;-67
2022/04/14 10:03:07;;;;;;;;;;;16.30;77.10;;;;;;5039607;28;19932;-67
2022/04/14 10:05:34;;;;;;;;;;;16.30;77.00;;;;;;5040243;28;19936;-66
2022/04/14 10:08:01;;;;;;;;;;;16.30;76.90;;;;;;5037842;28;19940;-66
2022/04/14 10:10:27;;;;;;;;;;;16.30;76.80;;;;;;5043077;28;19932;-67
2022/04/14 10:13:01;;;;;;;;;;;16.40;76.90;;;;;;5038025;28;19929;-67
2022/04/14 10:15:28;;;;;;;;;;;16.40;76.80;;;;;;5036726;28;20043;-66
2022/04/14 10:17:56;;;;;;;;;;;16.50;76.90;;;;;;5033846;28;19932;-67
2022/04/14 10:20:25;;;;;;;;;;;16.40;76.50;;;;;;5040194;28;19929;-67
2022/04/14 10:22:51;;;;;;;;;;;16.50;76.60;;;;;;5037750;28;19933;-67
2022/04/14 10:25:18;;;;;;;;;;;16.60;76.80;;;;;;5036176;28;20798;-67
2022/04/14 10:27:45;;;;;;;;;;;17.10;77.00;;;;;;5037784;28;19929;-66
2022/04/14 10:30:16;;;;;;;;;;;17.70;74.90;;;;;;5036924;28;20022;-67
2022/04/14 10:32:44;;;;;;;;;;;18.40;71.90;;;;;;5039098;28;19964;-66
2022/04/14 10:35:12;;;;;;;;;;;19.30;67.80;;;;;;5034482;28;19928;-66
2022/04/14 10:37:42;;;;;;;;;;;19.90;65.60;;;;;;5033329;28;19932;-67
2022/04/14 10:40:09;;;;;;;;;;;20.40;63.30;;;;;;5034412;28;19933;-67
2022/04/14 10:42:37;;;;;;;;;;;21.30;60.30;;;;;;5037178;28;19929;-65
2022/04/14 10:45:15;;;;;;;;;;;22.20;57.40;;;;;;5037430;28;19954;-66
2022/04/14 10:48:00;;;;;;;;;;;23.10;55.30;;;;;;5035541;28;20442;-67
2022/04/14 10:50:29;;;;;;;;;;;23.90;52.40;;;;;;5037732;28;20403;-67
2022/04/14 10:53:03;;;;;;;;;;;25.20;49.60;;;;;;5045673;28;19933;-66
2022/04/14 10:55:40;;;;;;;;;;;25.50;48.10;;;;;;5043193;28;19937;-66
2022/04/14 10:58:07;;;;;;;;;;;24.50;50.10;;;;;;5038019;28;19962;-66
2022/04/14 11:00:34;;;;;;;;;;;23.40;52.90;;;;;;5042324;28;20502;-66
2022/04/14 11:03:05;;;;;;;;;;;22.60;55.30;;;;;;5041984;28;19928;-66
2022/04/14 11:05:43;;;;;;;;;;;21.90;57.20;;;;;;5038549;28;19940;-66
2022/04/14 11:08:29;;;;;;;;;;;21.40;58.70;;;;;;5040704;28;19929;-66
2022/04/14 11:11:10;;;;;;;;;;;21.00;59.90;;;;;;5041105;28;20016;-66
2022/04/14 11:13:55;;;;;;;;;;;20.70;61.20;;;;;;5036233;28;19929;-66
2022/04/14 11:16:37;;;;;;;;;;;20.40;62.20;;;;;;5037352;28;19933;-65
2022/04/14 11:19:22;;;;;;;;;;;20.30;62.90;;;;;;5038405;28;19937;-67
2022/04/14 11:22:00;;;;;;;;;;;20.20;63.50;;;;;;5037295;28;20651;-66
2022/04/14 11:24:33;;;;;;;;;;;20.10;63.90;;;;;;5040422;28;19999;-67
2022/04/14 11:27:08;;;;;;;;;;;20.00;64.10;;;;;;5040049;28;19935;-66
2022/04/14 11:29:35;;;;;;;;;;;20.00;64.20;;;;;;5042764;28;19941;-65
2022/04/14 11:32:01;;;;;;;;;;;20.00;64.30;;;;;;5041186;28;19983;-66
2022/04/14 11:34:31;;;;;;;;;;;20.00;64.40;;;;;;5041092;28;19936;-66
2022/04/14 11:36:59;;;;;;;;;;;20.00;64.40;;;;;;5036672;28;19935;-66
2022/04/14 11:39:26;;;;;;;;;;;20.10;64.40;;;;;;5036479;28;19929;-68
2022/04/14 11:41:54;;;;;;;;;;;20.10;64.40;;;;;;5040228;28;19933;-67
2022/04/14 11:44:21;;;;;;;;;;;20.10;64.40;;;;;;5039752;28;19935;-66
2022/04/14 11:46:48;;;;;;;;;;;20.10;64.30;;;;;;5037511;28;20620;-67
2022/04/14 11:49:15;;;;;;;;;;;20.20;64.20;;;;;;5036844;28;19933;-66
2022/04/14 11:51:42;;;;;;;;;;;20.20;64.10;;;;;;5039240;28;19940;-67
2022/04/14 11:54:09;;;;;;;;;;;20.20;63.90;;;;;;5041491;28;19963;-66
2022/04/14 11:56:37;;;;;;;;;;;20.20;63.90;;;;;;5041088;28;20014;-66
2022/04/14 11:59:08;;;;;;;;;;;20.30;63.80;;;;;;5040761;28;19940;-66
2022/04/14 12:01:35;;;;;;;;;;;20.30;63.70;;;;;;5038613;28;19935;-67
2022/04/14 12:04:02;;;;;;;;;;;20.40;63.60;;;;;;5034279;28;19937;-67
2022/04/14 12:06:29;;;;;;;;;;;20.40;63.50;;;;;;5040621;28;19928;-67
2022/04/14 12:08:56;;;;;;;;;;;20.50;63.40;;;;;;5039261;28;19940;-68
2022/04/14 12:11:24;;;;;;;;;;;20.50;63.40;;;;;;5040413;28;19932;-67
2022/04/14 12:13:52;;;;;;;;;;;20.60;63.30;;;;;;5037341;28;20011;-67
2022/04/14 12:16:19;;;;;;;;;;;20.60;63.20;;;;;;5039339;28;19982;-66
2022/04/14 12:18:50;;;;;;;;;;;20.60;63.00;;;;;;5035365;28;19933;-67
2022/04/14 12:21:20;;;;;;;;;;;20.70;62.80;;;;;;5038748;28;20472;-66
2022/04/14 12:23:48;;;;;;;;;;;20.70;62.80;;;;;;5036923;28;19937;-66
2022/04/14 12:26:14;;;;;;;;;;;20.80;62.70;;;;;;5036488;28;19929;-67
2022/04/14 12:28:41;;;;;;;;;;;20.80;62.60;;;;;;5038373;28;20343;-67
2022/04/14 12:31:12;;;;;;;;;;;20.80;62.70;;;;;;5040344;28;20485;-67
2022/04/14 12:33:39;;;;;;;;;;;20.90;62.70;;;;;;5039283;28;19933;-67
2022/04/14 12:36:06;;;;;;;;;;;20.90;62.70;;;;;;5039077;28;19954;-66
2022/04/14 12:38:42;;;;;;;;;;;20.90;62.80;;;;;;5038105;28;20717;-67
2022/04/14 12:41:12;;;;;;;;;;;21.00;62.70;;;;;;5040562;28;19933;-66
2022/04/14 12:43:40;;;;;;;;;;;21.00;62.80;;;;;;5034568;28;20484;-67
2022/04/14 12:46:22;;;;;;;;;;;21.00;62.70;;;;;;5039460;28;20453;-67
2022/04/14 12:48:59;;;;;;;;;;;21.00;62.30;;;;;;5035698;28;19928;-67
2022/04/14 12:51:27;;;;;;;;;;;21.10;62.10;;;;;;5037870;28;20381;-67
2022/04/14 12:53:54;;;;;;;;;;;21.10;62.30;;;;;;5035656;28;19963;-66
2022/04/14 12:56:21;;;;;;;;;;;21.10;62.40;;;;;;5039435;28;19936;-66
2022/04/14 12:59:02;;;;;;;;;;;21.20;62.20;;;;;;5031399;28;19986;-66
2022/04/14 13:01:44;;;;;;;;;;;21.20;62.20;;;;;;5038483;28;19935;-66
2022/04/14 13:04:10;;;;;;;;;;;21.30;61.90;;;;;;5036083;28;19928;-75
2022/04/14 13:06:37;;;;;;;;;;;21.30;62.00;;;;;;5037137;28;19935;-76
2022/04/14 13:09:13;;;;;;;;;;;21.30;62.00;;;;;;5038123;28;19940;-75
2022/04/14 13:11:40;;;;;;;;;;;21.40;62.00;;;;;;5038240;28;19936;-76
2022/04/14 13:14:15;;;;;;;;;;;21.50;62.00;;;;;;5031845;28;20049;-75
2022/04/14 13:16:43;;;;;;;;;;;21.50;62.70;;;;;;5033720;28;19941;-76
2022/04/14 13:19:10;;;;;;;;;;;21.50;61.40;;;;;;5036490;28;19935;-76
2022/04/14 13:21:36;;;;;;;;;;;21.60;61.40;;;;;;5038094;28;19929;-76
2022/04/14 13:24:03;;;;;;;;;;;21.60;61.10;;;;;;5035831;28;19936;-75
2022/04/14 13:26:30;;;;;;;;;;;21.60;60.50;;;;;;5037898;28;20416;-76
2022/04/14 13:28:57;;;;;;;;;;;21.70;60.30;;;;;;5038976;28;20559;-75
2022/04/14 13:31:23;;;;;;;;;;;21.70;60.40;;;;;;5039208;28;20416;-76
2022/04/14 13:33:51;;;;;;;;;;;21.80;60.40;;;;;;5032156;28;19936;-75
2022/04/14 13:36:18;;;;;;;;;;;21.80;60.20;;;;;;5038312;28;19933;-74
2022/04/14 13:38:44;;;;;;;;;;;21.90;59.90;;;;;;5040619;28;19939;-76
2022/04/14 13:41:12;;;;;;;;;;;21.90;59.50;;;;;;5040801;28;19932;-75
2022/04/14 13:43:38;;;;;;;;;;;21.90;59.10;;;;;;5035911;28;19929;-75
2022/04/14 13:46:05;;;;;;;;;;;22.00;62.00;;;;;;5035434;28;19928;-75
2022/04/14 13:48:31;;;;;;;;;;;22.00;59.50;;;;;;5036583;28;20499;-75
2022/04/14 13:51:00;;;;;;;;;;;22.30;59.60;;;;;;5036594;28;19936;-75
2022/04/14 13:53:27;;;;;;;;;;;22.10;58.30;;;;;;5034006;28;19936;-75
2022/04/14 13:55:54;;;;;;;;;;;22.10;58.20;;;;;;5031996;28;19932;-75
2022/04/14 13:58:21;;;;;;;;;;;22.10;58.50;;;;;;5034606;28;19936;-76
2022/04/14 14:00:48;;;;;;;;;;;22.10;63.50;;;;;;5037936;28;19936;-76
2022/04/14 14:03:15;;;;;;;;;;;22.20;58.40;;;;;;5036272;28;20013;-76
2022/04/14 14:05:42;;;;;;;;;;;22.20;57.90;;;;;;5036919;28;19936;-76
2022/04/14 14:08:10;;;;;;;;;;;22.20;58.20;;;;;;5037162;28;19936;-76
2022/04/14 14:10:37;;;;;;;;;;;22.30;58.80;;;;;;5035611;28;19929;-76
2022/04/14 14:13:04;;;;;;;;;;;22.30;57.40;;;;;;5033294;28;19959;-76
2022/04/14 14:15:31;;;;;;;;;;;22.30;57.30;;;;;;5034992;28;19937;-75
2022/04/14 14:17:57;;;;;;;;;;;22.30;57.30;;;;;;5038147;28;19945;-76
2022/04/14 14:20:24;;;;;;;;;;;22.30;57.60;;;;;;5038461;28;19933;-76
2022/04/14 14:22:50;;;;;;;;;;;22.30;57.10;;;;;;5039613;28;19933;-76